Portada
METAR-TAF:

METAR-TAF

Aeroports :

Londres Southend, Anglaterra

latitud: 51-34N, longitud: 000-42E, altitud: 15 m

Observació

L'informe es va fer fa 24 minuts, a les 09:50 UTC
Vent 14 kt del Sud/Sud-Oest
Temperatura 10°C
Humitat 87%
Pressió 991 hPa
Visibilitat 10 km o més
Cel ennuvolat a una alçada de 1100 ft
Cel ennuvolat a una alçada de 1400 ft
xàfecs de pluja

METAR: EGMC 200950Z 20014KT 9999 -SHRA BKN011 BKN014 10/08 Q0991

Hora: 10:14 (10:14 UTC)

Pronòstic

L'informe es va fer fa 2 hores i 19 minuts, a les 07:55 UTC
Pronòstic vàlid del 20 a les 09 UTC al 20 a les 18 UTC
Vent 18 kt del Sud-Oest
Visibilitat 10 km o més
Cel ennuvolat a una alçada de 1200 ft
Temporalment
l' 20 a les 09 UTC al 20 a les 18 UTC
Vent 20 kt del Sud-Oest amb ràfegues de 32 kt
Visibilitat: 4000 m
Cel ennuvolat a una alçada de 600 ft
pluja, plugim

TAF: EGMC 200755Z 2009/2018 22018KT 9999 BKN012 TEMPO 2009/2018 23020G32KT 4000 RADZ BKN006

Observacions i pronòstics meteorològics de més de 4000 aeroports (METAR i TAF).

Les estacions disponibles són els punts grocs i vermells al mapa.

Posi el ratolí al punt desitjat per veure el nom de l'estació.

Feu clic per veure les observacions i els pronòstics meteorològics.

Per canviar el mapa: feu clic els botons verds amb una creu de color negre per apropar; al botó verd amb un guió per allunyar la imatge; o en les fletxes verdes per a mapes adjacents.


METAR-TAF: